Terminal Aerodrome Forecast
Issued by NWS Norman, OK

Home | Current Version | Previous Version | Text Only | Print | Product List | Glossary On
Versions: 1 2 3 4 5 6 7 8 9 10 11 12 13 14 15 16 17 18 19 20 21 22 23 24 25 26
000
FTUS44 KOUN 070520
TAFSPS
TAF
KSPS 070520Z 0706/0806 16014KT P6SM VCSH FEW060 SCT110
     FM070900 VRB10G15KT 6SM -TSRA BR BKN035CB
     FM071200 15011KT 6SM SHRA VCTS BKN015 OVC035CB
     FM071600 18012G18KT 4SM +SHRA OVC006=

USA.gov is the U.S. government's official web portal to all federal, state and local government web resources and services.